Terminal Aerodrome Forecast
Issued by NWS Twin Cities, MN

Home | Current Version | Previous Version | Graphics & Text | Print | Product List | Glossary On
Versions: 1 2 3 4 5 6 7 8 9 10 11 12 13 14 15 16 17 18 19 20 21 22 23 24 25
000
FTUS43 KMPX 181500 AAB
TAFSTC
TAF AMD
KSTC 181508Z 1815/1912 11005KT P6SM OVC003
     FM181600 12006KT P6SM BKN005
     FM181700 15010KT P6SM SCT035
     FM190800 18015G22KT 5SM BR OVC006=

USA.gov is the U.S. government's official web portal to all federal, state and local government web resources and services.